Rives Junction, Michigan
Current Conditions -  °F | °C
As of 2:56 AM on Tuesday 27 Jan 2015 (Local Time) from KJXN Reporting Station
Broken Clouds Broken Clouds  
Wind Chill: 17°   Ceiling: 12000
Heat Index: 17°   Visibility: 10mi
Dew Point: 10°   Wind: 0mph
Humidity: 74%   Direction: NA
Pressure: 29.96"   Gusts: NA
Location:  42.39°N, 84.46°W
Report Text: KJXN 270756Z 00000KT 10SM BKN120 M08/M12 A2996 RMK AO2 SLP162 T10831122
Loading
Personal Weather Stations






























Interactive Weather Map New forecast layout! Learn more

10-Day Weather Forecast

Advertisements
Track Severe Weather on mobile